Kent, Illinois
Current Conditions -  °F | °C
As of 3:55 PM on Tuesday 25 Nov 2014 (Local Time) from KFEP Reporting Station
Clear Clear  
Wind Chill: 10°   Ceiling: Unl
Heat Index: 20°   Visibility: 10mi
Dew Point: 14°   Wind: 8mph
Humidity: 79%   Direction: 220°SW
Pressure: 30.16"   Gusts: NA
Location:  42.31°N, 89.9°W
Report Text: KFEP 252155Z AUTO 22007KT 10SM CLR M07/M10 A3016 RMK AO2 T10671098
Loading
Personal Weather Stations






























Interactive Weather Map New forecast layout! Learn more

10-Day Weather Forecast

Advertisements
Track Severe Weather on mobile